Bad Ischl, Austria
Current Conditions -  °F | °C
As of 7:20 PM on Thursday 27 Nov 2014 (Local Time) from LOWS Reporting Station
Broken Clouds Broken Clouds  
Wind Chill: 31°   Ceiling: 30000
Heat Index: 36°   Visibility: 6mi
Dew Point: 34°   Wind: 6mph
Humidity: 93%   Direction: 300°WNW
Pressure: 29.8"   Gusts: NA
Location:  47.72°N, 13.61°E
Report Text: LOWS 271720Z 30005KT 9999 FEW009 BKN300 02/01 Q1009 BECMG FM1745 SCT009 BKN015
Loading
Personal Weather Stations






























Interactive Weather Map New forecast layout! Learn more

10-Day Weather Forecast

Advertisements
Track Severe Weather on mobile